Latest Weather Observations for Tibooburra Airport

IDN60801

Issued at 10:05 pm EST Saturday 30 August 2014 (issued every 30 minutes, with the page automatically refreshed every 10 minutes)

About weather observations | Map of weather stations | Latest weather observations for NSW | Other Formats
Station Details ID: 046126 Name: TIBOOBURRA AIRPORT Lat: -29.44 Lon: 142.06 Height: 176.4 m
Data from the previous 72 hours. | See also: Recent months for locations in New South Wales
Date/Time
EST
Temp
°C
App
Temp
°C
Dew
Point
Rel
Hum
%
Delta-T
°C
Wind Press
QNH
hPa
Press
MSL
hPa
Rain
since 9 am
mm
Dir
 
Spd
km/h
Gust
km/h
Spd
kts
Gust
kts
30/10:00pm 15.2 11.5 -0.1 35 6.5 ESE 9 9 5 5 1021.6 1021.5 0.0
30/09:30pm 15.4 11.7 0.0 35 6.6 ESE 9 15 5 8 1021.7 - 0.0
30/09:00pm 17.1 13.0 -0.1 31 7.4 E 11 15 6 8 1021.5 1021.4 0.0
30/08:30pm 17.5 14.1 -0.7 29 7.8 ENE 7 9 4 5 1021.4 - 0.0
30/08:00pm 18.1 14.3 -0.7 28 8.1 ENE 9 11 5 6 1021.3 1021.2 0.0
30/07:30pm 18.5 14.8 -0.3 28 8.2 E 9 9 5 5 1021.0 - 0.0
30/07:00pm 19.2 15.9 -0.2 27 8.5 ENE 7 9 4 5 1020.8 1020.7 0.0
30/06:30pm 20.0 16.3 -0.1 26 8.9 E 9 9 5 5 1020.5 - 0.0
30/06:00pm 21.9 18.5 -0.8 22 10.1 E 7 9 4 5 1020.4 1020.3 0.0
30/05:30pm 22.6 18.4 -0.8 21 10.5 E 11 15 6 8 1020.4 - 0.0
30/05:00pm 23.0 20.1 -1.1 20 10.7 SE 4 7 2 4 1020.3 1020.2 0.0
30/04:30pm 23.4 20.4 -1.5 19 11.1 NNE 4 13 2 7 1020.4 - 0.0
30/04:00pm 23.1 19.7 -1.8 19 11.0 NNE 6 11 3 6 1020.4 1020.3 0.0
30/03:30pm 23.5 20.1 -0.7 20 11.0 S 7 11 4 6 1020.6 - 0.0
30/03:00pm 23.0 18.9 -0.5 21 10.6 SE 11 20 6 11 1020.9 1020.8 0.0
30/02:30pm 23.3 20.0 -0.9 20 10.9 N 6 13 3 7 1021.3 - 0.0
30/02:00pm 22.8 19.1 0.0 22 10.4 ESE 9 19 5 10 1021.8 1021.8 0.0
30/01:30pm 22.8 18.1 0.6 23 10.2 ENE 15 24 8 13 1022.3 - 0.0
30/01:00pm 22.3 19.1 0.8 24 9.9 ENE 7 19 4 10 1022.8 1022.7 0.0
30/12:30pm 22.3 19.2 1.3 25 9.8 ENE 7 13 4 7 1023.3 - 0.0
30/12:00pm 21.8 17.5 0.9 25 9.6 E 13 20 7 11 1023.9 1023.8 0.0
30/11:30am 21.5 18.4 1.2 26 9.4 SE 7 15 4 8 1024.4 - 0.0
30/11:00am 21.0 18.2 1.8 28 8.9 NNE 6 15 3 8 1024.8 1024.7 0.0
30/10:30am 20.2 16.8 1.6 29 8.6 NE 9 15 5 8 1025.1 - 0.0
30/10:00am 19.3 15.5 1.8 31 8.0 NNE 11 15 6 8 1025.2 1025.1 0.0
30/09:30am 17.7 13.9 1.7 34 7.2 NE 11 15 6 8 1025.3 - 0.0
30/09:00am 16.4 12.8 0.9 35 6.8 ENE 9 13 5 7 1025.4 1025.3 0.0
30/08:30am 14.6 12.1 1.8 42 5.7 S 4 9 2 5 1025.5 - 0.0
30/08:00am 11.8 9.6 1.2 48 4.5 SW 2 6 1 3 1025.0 1024.9 0.0
30/07:30am 10.2 7.0 0.8 52 3.9 SW 7 7 4 4 1024.7 - 0.0
30/07:00am 9.3 6.3 0.7 55 3.5 WSW 6 7 3 4 1024.4 1024.3 0.0
30/06:30am 8.8 5.8 0.5 56 3.4 WSW 6 7 3 4 1024.2 - 0.0
30/06:00am 9.0 5.8 0.5 55 3.4 WSW 7 9 4 5 1024.0 1023.9 0.0
30/05:30am 8.8 5.2 0.3 55 3.4 WSW 9 11 5 6 1023.7 - 0.0
30/05:00am 9.8 6.2 0.4 52 3.8 SW 9 11 5 6 1023.6 1023.5 0.0
30/04:30am 10.6 7.3 0.3 49 4.2 S 7 7 4 4 1023.5 - 0.0
30/04:00am 10.0 6.7 0.3 51 3.9 SW 7 9 4 5 1023.5 1023.4 0.0
30/03:30am 10.2 6.9 0.3 50 4.1 SW 7 7 4 4 1023.7 - 0.0
30/03:00am 11.4 8.4 0.5 47 4.5 SSW 6 7 3 4 1023.7 1023.6 0.0
30/02:30am 11.4 8.2 0.5 47 4.5 SW 7 7 4 4 1023.9 - 0.0
30/02:00am 11.7 8.5 0.5 46 4.7 SSW 7 7 4 4 1024.2 1024.1 0.0
30/01:30am 11.7 8.5 0.5 46 4.7 SSW 7 7 4 4 1024.3 - 0.0
30/01:00am 11.6 8.5 0.4 46 4.6 SW 6 7 3 4 1024.4 1024.3 0.0
30/12:30am 12.6 9.5 0.0 42 5.3 S 6 7 3 4 1024.4 - 0.0
30/12:00am 13.1 9.8 0.2 41 5.4 SSE 7 9 4 5 1024.4 1024.3 0.0
 
Date/Time
EST
Temp
°C
App
Temp
°C
Dew
Point
Rel
Hum
%
Delta-T
°C
Wind Press
QNH
hPa
Press
MSL
hPa
Rain
since 9 am
mm
Dir
 
Spd
km/h
Gust
km/h
Spd
kts
Gust
kts
29/11:30pm 13.4 10.0 -0.3 39 5.7 SSE 7 9 4 5 1024.5 - 0.0
29/11:00pm 13.8 10.0 -0.6 37 6.0 SE 9 13 5 7 1024.6 1024.5 0.0
29/10:30pm 14.2 10.1 -0.3 37 6.1 SE 11 13 6 7 1024.5 - 0.0
29/10:00pm 14.8 10.3 -0.5 35 6.4 SE 13 15 7 8 1024.3 1024.2 0.0
29/09:30pm 14.9 10.3 -0.8 34 6.6 SE 13 15 7 8 1024.4 - 0.0
29/09:00pm 15.5 10.9 -1.1 32 6.9 SE 13 15 7 8 1024.4 1024.3 0.0
29/08:30pm 16.1 11.9 -1.0 31 7.2 SE 11 13 6 7 1024.4 - 0.0
29/08:00pm 16.3 11.7 -1.3 30 7.3 SE 13 15 7 8 1024.3 1024.2 0.0
29/07:30pm 16.8 12.2 -1.3 29 7.6 SE 13 17 7 9 1024.2 - 0.0
29/07:00pm 17.7 13.0 -1.5 27 8.1 SE 13 15 7 8 1024.0 1023.9 0.0
29/06:30pm 18.8 14.4 -2.2 24 8.9 ESE 11 15 6 8 1023.9 - 0.0
29/06:00pm 20.8 15.3 -2.3 21 9.9 SE 17 24 9 13 1023.9 1023.8 0.0
29/05:30pm 21.7 15.7 -2.9 19 10.5 ESE 19 24 10 13 1023.9 - 0.0
29/05:00pm 22.2 16.2 -1.8 20 10.5 ESE 20 28 11 15 1023.9 1023.8 0.0
29/04:30pm 22.8 16.8 -1.3 20 10.7 SE 20 30 11 16 1023.8 - 0.0
29/04:00pm 22.8 16.9 -0.6 21 10.5 ESE 20 32 11 17 1023.9 1023.8 0.0
29/03:30pm 22.6 16.7 -0.8 21 10.5 ESE 20 28 11 15 1024.0 - 0.0
29/03:00pm 21.9 16.6 -0.8 22 10.1 SSE 17 24 9 13 1024.4 1024.3 0.0
29/02:30pm 22.1 16.5 0.0 23 10.0 ESE 19 32 10 17 1024.8 - 0.0
29/02:00pm 21.5 16.2 -0.5 23 9.8 ESE 17 28 9 15 1025.1 1025.0 0.0
29/01:30pm 21.3 14.6 -1.3 22 9.9 ESE 24 32 13 17 1025.4 - 0.0
29/01:00pm 20.9 14.7 -0.4 24 9.4 ESE 22 33 12 18 1025.9 1025.8 0.0
29/12:30pm 20.7 14.5 0.0 25 9.3 E 22 30 12 16 1026.4 - 0.0
29/12:00pm 20.3 13.8 0.2 26 9.0 ESE 24 35 13 19 1026.9 1026.9 0.0
29/11:30am 20.3 14.2 0.7 27 8.9 E 22 32 12 17 1027.3 - 0.0
29/11:00am 19.6 13.9 0.6 28 8.5 ESE 20 28 11 15 1027.5 1027.5 0.0
29/10:30am 19.2 14.9 3.0 34 7.6 ESE 15 26 8 14 1027.7 - 0.0
29/10:00am 18.4 13.1 3.1 36 7.1 E 20 24 11 13 1027.9 1027.9 0.0
29/09:30am 17.0 12.7 3.0 39 6.5 E 15 17 8 9 1028.0 - 0.0
29/09:00am 15.4 11.8 2.9 43 5.7 E 11 15 6 8 1028.2 1028.1 0.0
29/08:30am 13.6 10.3 2.2 46 5.0 E 9 11 5 6 1028.0 - 0.0
29/08:00am 12.1 9.2 1.7 49 4.4 SE 6 11 3 6 1027.7 1027.7 0.0
29/07:30am 10.2 7.1 1.6 55 3.6 ESE 7 9 4 5 1027.4 - 0.0
29/07:00am 9.6 6.5 1.5 57 3.4 ESE 7 9 4 5 1027.2 1027.2 0.0
29/06:30am 9.6 6.1 1.5 57 3.4 E 9 11 5 6 1026.8 - 0.0
29/06:00am 9.5 5.6 1.4 57 3.4 ESE 11 13 6 7 1026.2 1026.1 0.0
29/05:30am 10.2 6.0 1.8 56 3.6 SE 13 17 7 9 1025.9 - 0.0
29/05:00am 10.9 6.8 2.2 55 3.7 SE 13 17 7 9 1025.9 1025.8 0.0
29/04:30am 10.9 6.8 2.5 56 3.6 SE 13 15 7 8 1025.8 - 0.0
29/04:00am 10.7 7.0 2.3 56 3.6 SSE 11 15 6 8 1025.8 1025.7 0.0
29/03:30am 11.3 7.3 2.6 55 3.8 SSE 13 15 7 8 1025.7 - 0.0
29/03:00am 11.4 7.3 2.4 54 3.9 SSE 13 15 7 8 1025.9 1025.8 0.0
29/02:30am 11.6 7.9 2.4 53 4.0 SSE 11 13 6 7 1026.3 - 0.0
29/02:00am 11.9 7.8 2.1 51 4.2 SSE 13 15 7 8 1026.3 1026.2 0.0
29/01:30am 12.0 8.6 1.9 50 4.4 SSE 9 13 5 7 1026.5 - 0.0
29/01:00am 12.9 8.8 2.2 48 4.7 SSE 13 17 7 9 1026.6 1026.6 0.0
29/12:30am 12.7 8.5 1.7 47 4.8 SSE 13 17 7 9 1026.6 - 0.0
29/12:00am 13.0 8.8 1.4 45 5.0 SSE 13 17 7 9 1026.7 1026.7 0.0
 
Date/Time
EST
Temp
°C
App
Temp
°C
Dew
Point
Rel
Hum
%
Delta-T
°C
Wind Press
QNH
hPa
Press
MSL
hPa
Rain
since 9 am
mm
Dir
 
Spd
km/h
Gust
km/h
Spd
kts
Gust
kts
28/11:30pm 12.9 9.4 1.3 45 5.0 S 9 11 5 6 1026.7 - 0.0
28/11:00pm 13.1 8.8 0.8 43 5.2 SSE 13 15 7 8 1026.7 1026.7 0.0
28/10:30pm 13.1 8.7 0.5 42 5.3 S 13 15 7 8 1026.8 - 0.0
28/10:00pm 13.7 9.2 0.0 39 5.7 S 13 15 7 8 1026.9 1026.9 0.0
28/09:30pm 14.4 9.9 -0.1 37 6.1 S 13 17 7 9 1026.9 - 0.0
28/09:00pm 14.1 10.3 -0.4 37 6.0 S 9 13 5 7 1026.8 1026.8 0.0
28/08:30pm 14.7 10.9 -1.0 34 6.5 S 9 11 5 6 1026.6 - 0.0
28/08:00pm 16.2 11.6 -0.9 31 7.2 SSE 13 17 7 9 1026.1 1026.0 0.0
28/07:30pm 16.9 11.9 -1.2 29 7.7 SSE 15 17 8 9 1025.7 - 0.0
28/07:00pm 17.9 12.5 -1.3 27 8.1 SE 17 20 9 11 1025.4 1025.3 0.0
28/06:30pm 18.7 12.9 -1.7 25 8.7 SE 19 26 10 14 1025.1 - 0.0
28/06:00pm 19.5 12.4 -1.6 24 9.0 SE 26 33 14 18 1025.0 1024.9 0.0
28/05:30pm 20.4 13.7 -1.4 23 9.5 SSE 24 33 13 18 1025.0 - 0.0
28/05:00pm 20.7 14.4 -1.2 23 9.5 SSE 22 35 12 19 1024.7 1024.6 0.0
28/04:30pm 21.1 14.4 -1.4 22 9.8 SSE 24 33 13 18 1024.8 - 0.0
28/04:00pm 21.4 14.3 -1.2 22 9.9 SSE 26 39 14 21 1024.6 1024.5 0.0
28/03:53pm 21.4 13.9 -1.2 22 10.0 SSE 28 46 15 25 1024.7 - 0.0
28/03:30pm 21.6 13.4 -1.0 22 10.0 S 32 39 17 21 1024.7 - 0.0
28/03:00pm 21.3 14.6 1.6 27 9.1 SSE 26 39 14 21 1025.1 1025.0 0.0
28/02:30pm 21.2 15.0 2.0 28 9.0 SSE 24 33 13 18 1025.2 - 0.0
28/02:00pm 21.6 15.4 2.3 28 9.1 SSE 24 33 13 18 1025.6 1025.5 0.0
28/01:30pm 21.0 15.0 3.2 31 8.5 SSE 24 35 13 19 1025.9 - 0.0
28/01:00pm 21.2 15.3 3.9 32 8.4 SE 24 35 13 19 1026.2 1026.1 0.0
28/12:30pm 20.9 14.5 3.2 31 8.5 SSE 26 35 14 19 1026.6 - 0.0
28/12:00pm 20.7 15.1 3.4 32 8.2 ESE 22 30 12 16 1027.1 1027.1 0.0
28/11:30am 19.8 14.8 3.5 34 7.8 SSE 19 24 10 13 1027.4 - 0.0
28/11:00am 19.3 13.0 3.9 36 7.3 ESE 26 35 14 19 1027.8 1027.8 0.0
28/10:30am 18.9 12.6 3.9 37 7.2 ESE 26 33 14 18 1027.8 - 0.0
28/10:00am 18.3 12.7 5.2 42 6.4 ESE 24 30 13 16 1027.9 1027.9 0.0
28/09:30am 17.1 12.3 5.7 47 5.6 E 20 26 11 14 1027.9 - 0.0
28/09:00am 16.2 11.4 5.8 50 5.0 E 20 28 11 15 1027.7 1027.7 0.0
28/08:30am 14.6 10.4 5.9 56 4.2 E 17 24 9 13 1027.4 - 0.0
28/08:00am 13.1 9.8 6.2 63 3.3 E 13 17 7 9 1027.0 1027.0 0.0
28/07:30am 11.9 8.2 6.2 68 2.7 E 15 17 8 9 1026.7 - 0.0
28/07:00am 10.9 8.7 6.1 72 2.2 E 7 11 4 6 1026.0 1025.9 0.0
28/06:30am 11.5 7.7 6.0 69 2.6 ESE 15 20 8 11 1025.3 - 0.0
28/06:00am 11.1 8.1 5.8 70 2.5 ESE 11 15 6 8 1025.1 1025.0 0.0
28/05:30am 12.0 8.7 6.3 68 2.7 SE 13 15 7 8 1025.0 - 0.0
28/05:00am 12.2 8.9 6.5 68 2.7 SSE 13 17 7 9 1024.6 1024.5 0.0
28/04:30am 12.1 9.6 6.6 69 2.6 SSE 9 11 5 6 1024.6 - 0.0
28/04:00am 12.3 10.8 6.6 68 2.7 S 4 9 2 5 1024.4 1024.3 0.0
28/03:30am 12.3 10.1 6.4 67 2.8 S 7 11 4 6 1024.4 - 0.0
28/03:00am 13.0 10.2 6.8 66 3.0 S 11 15 6 8 1024.4 1024.3 0.0
28/02:30am 12.3 9.4 6.6 68 2.7 SSW 11 13 6 7 1024.6 - 0.0
28/02:00am 12.4 9.5 6.5 67 2.8 SSW 11 13 6 7 1024.7 1024.6 0.0
28/01:30am 12.6 9.3 6.4 66 3.0 SW 13 15 7 8 1024.9 - 0.0
28/01:00am 13.5 10.2 6.6 63 3.3 S 13 13 7 7 1024.9 1024.8 0.0
28/12:30am 13.1 10.1 6.2 63 3.3 SSW 11 13 6 7 1025.0 - 0.0
28/12:00am 13.2 10.6 6.3 63 3.3 SSW 9 11 5 6 1025.0 1024.9 0.0
 
Date/Time
EST
Temp
°C
App
Temp
°C
Dew
Point
Rel
Hum
%
Delta-T
°C
Wind Press
QNH
hPa
Press
MSL
hPa
Rain
since 9 am
mm
Dir
 
Spd
km/h
Gust
km/h
Spd
kts
Gust
kts
27/11:30pm 13.2 10.6 6.3 63 3.3 SW 9 11 5 6 1025.2 - 0.0
27/11:00pm 13.9 11.0 6.5 61 3.6 S 11 11 6 6 1025.1 1025.0 0.0
27/10:30pm 14.2 11.3 6.3 59 3.8 S 11 13 6 7 1025.0 - 0.0

Other Formats:

Comma delimited format used in spreadsheet applications
http://www.bom.gov.au/fwo/IDN60801/IDN60801.95485.axf

JavaScript Object Notation format (JSON) in row-major order
http://www.bom.gov.au/fwo/IDN60801/IDN60801.95485.json